Bluff City, Kansas
Current Conditions -  °F | °C
As of 1:15 AM on Thursday 18 Dec 2014 (Local Time) from KBKN Reporting Station
Haze Haze  
Wind Chill: 28°   Ceiling: 400
Heat Index: 34°   Visibility: 4mi
Dew Point: 34°   Wind: 7mph
Humidity: 100%   Direction: 90°E
Pressure: 30.13"   Gusts: NA
Location:  37.08°N, 97.88°W
Report Text: KBKN 180715Z AUTO 09006KT 4SM BR OVC004 01/01 A3013 RMK AO2
Loading
Personal Weather Stations






























Interactive Weather Map New forecast layout! Learn more

10-Day Weather Forecast

Advertisements
Track Severe Weather on mobile